createdAt,value
2023-02-28T08:01:40.154Z,99.90
2023-02-28T08:04:08.105Z,99.90
2023-02-28T08:06:35.510Z,99.50
2023-02-28T08:09:03.587Z,99.70
2023-02-28T08:11:31.768Z,99.80
2023-02-28T08:13:59.560Z,99.40
2023-02-28T08:16:26.908Z,99.60
2023-02-28T08:18:54.935Z,98.90
2023-02-28T08:21:22.804Z,98.90
2023-02-28T08:23:51.802Z,98.50
2023-02-28T08:26:20.184Z,98.60
2023-02-28T08:28:47.895Z,97.50
2023-02-28T08:31:17.192Z,97.60
2023-02-28T08:33:45.765Z,96.30
2023-02-28T08:36:13.420Z,95.50
2023-02-28T08:38:41.315Z,95.50
2023-02-28T08:41:12.051Z,95.00
2023-02-28T08:43:41.027Z,94.90
2023-02-28T08:46:12.172Z,94.60
2023-02-28T08:48:40.642Z,93.90
2023-02-28T08:51:11.258Z,93.00
2023-02-28T08:53:40.641Z,92.40
2023-02-28T08:56:18.447Z,91.40
2023-02-28T08:58:47.287Z,91.80
2023-02-28T09:01:18.254Z,92.90
2023-02-28T09:03:47.903Z,92.80
2023-02-28T09:06:17.010Z,92.30
2023-02-28T09:08:46.169Z,91.60
2023-02-28T09:11:14.173Z,91.80
2023-02-28T09:13:41.968Z,92.80
2023-02-28T09:16:13.737Z,92.00
2023-02-28T09:18:41.852Z,92.10
2023-02-28T09:21:15.295Z,92.00
2023-02-28T09:23:48.353Z,91.50
2023-02-28T09:26:21.173Z,91.30
2023-02-28T09:28:49.482Z,91.30
2023-02-28T09:31:22.246Z,91.00
2023-02-28T09:33:52.540Z,90.50
2023-02-28T09:36:23.248Z,89.40
2023-02-28T09:38:52.418Z,88.00
2023-02-28T09:41:40.989Z,88.80
2023-02-28T09:44:16.773Z,89.40
2023-02-28T09:46:48.290Z,88.30
2023-02-28T09:49:20.726Z,87.70
2023-02-28T09:52:10.182Z,88.00
2023-02-28T09:54:38.685Z,90.00
2023-02-28T09:57:07.958Z,89.00
2023-02-28T09:59:48.723Z,85.20
2023-02-28T10:02:59.452Z,85.60
2023-02-28T10:06:06.827Z,85.50
2023-02-28T10:08:33.986Z,85.60
2023-02-28T10:11:08.776Z,82.00
2023-02-28T10:14:02.512Z,83.10
2023-02-28T10:16:38.170Z,83.50
2023-02-28T10:19:22.684Z,84.50
2023-02-28T10:22:21.777Z,82.70
2023-02-28T10:24:54.494Z,81.70
2023-02-28T10:27:29.840Z,81.80
2023-02-28T10:30:00.282Z,81.00
2023-02-28T10:32:30.982Z,81.60
2023-02-28T10:35:20.113Z,81.10
2023-02-28T10:38:02.590Z,83.90
2023-02-28T10:40:38.918Z,82.30
2023-02-28T10:43:27.092Z,82.20
2023-02-28T10:46:03.961Z,80.70
2023-02-28T10:48:35.632Z,81.30
2023-02-28T10:51:06.210Z,81.30
2023-02-28T10:53:57.316Z,82.30
2023-02-28T10:56:26.840Z,83.10
2023-02-28T10:59:24.031Z,82.20
2023-02-28T11:01:53.951Z,82.80
2023-02-28T11:04:36.838Z,82.90
2023-02-28T11:07:05.677Z,82.30
2023-02-28T11:09:40.113Z,83.70
2023-02-28T11:12:19.027Z,81.80
2023-02-28T11:14:53.254Z,82.80
2023-02-28T11:17:27.196Z,81.90
2023-02-28T11:20:04.319Z,82.40
2023-02-28T11:22:40.007Z,79.30
2023-02-28T11:25:20.395Z,79.60
2023-02-28T11:27:52.138Z,79.70
2023-02-28T11:30:41.600Z,82.10
2023-02-28T11:33:30.619Z,81.60
2023-02-28T11:36:27.885Z,80.60
2023-02-28T11:38:58.100Z,81.80
2023-02-28T11:41:40.265Z,83.10
2023-02-28T11:44:25.044Z,82.70
2023-02-28T11:46:59.009Z,83.30
2023-02-28T11:49:55.555Z,83.50
2023-02-28T11:52:45.065Z,82.30
2023-02-28T11:55:36.534Z,82.50
2023-02-28T11:58:18.522Z,81.40
2023-02-28T12:01:37.867Z,80.40
2023-02-28T12:04:20.907Z,81.20
2023-02-28T12:06:54.093Z,80.60
2023-02-28T12:09:47.982Z,79.40
2023-02-28T12:12:30.434Z,79.20
2023-02-28T12:15:45.121Z,78.00
2023-02-28T12:18:24.516Z,78.00
2023-02-28T12:21:23.794Z,78.50
2023-02-28T12:24:02.760Z,78.70
2023-02-28T12:26:30.205Z,78.60
2023-02-28T12:29:25.189Z,80.40
2023-02-28T12:32:14.688Z,77.80
2023-02-28T12:34:52.212Z,77.50
2023-02-28T12:37:29.416Z,75.80
2023-02-28T12:40:06.796Z,75.80
2023-02-28T12:42:40.400Z,76.00
2023-02-28T12:45:11.347Z,76.60
2023-02-28T12:47:43.401Z,76.80
2023-02-28T12:50:12.691Z,76.50
2023-02-28T12:53:01.888Z,76.80
2023-02-28T12:55:47.095Z,77.10
2023-02-28T12:58:33.581Z,74.90
2023-02-28T13:01:15.992Z,74.10
2023-02-28T13:03:53.670Z,75.10
2023-02-28T13:06:43.129Z,74.50
2023-02-28T13:09:19.066Z,73.30
2023-02-28T13:11:50.468Z,73.00
2023-02-28T13:14:24.173Z,72.00
2023-02-28T13:16:59.620Z,74.20
2023-02-28T13:19:33.422Z,73.90
2023-02-28T13:22:01.963Z,75.60
2023-02-28T13:24:35.182Z,73.20
2023-02-28T13:27:02.526Z,72.50
2023-02-28T13:29:36.033Z,72.20
2023-02-28T13:32:09.783Z,72.60
2023-02-28T13:34:52.243Z,71.10
2023-02-28T13:37:22.373Z,70.60
2023-02-28T13:39:54.476Z,70.50
2023-02-28T13:42:50.934Z,70.90
2023-02-28T13:45:25.753Z,72.10
2023-02-28T13:48:04.482Z,74.60
2023-02-28T13:50:38.868Z,73.50
2023-02-28T13:53:15.475Z,74.20
2023-02-28T13:55:52.375Z,71.80
2023-02-28T13:58:40.143Z,73.10
2023-02-28T14:01:39.458Z,75.00
2023-02-28T14:04:51.342Z,73.90
2023-02-28T14:07:24.334Z,73.80
2023-02-28T14:10:06.590Z,73.20
2023-02-28T14:12:55.854Z,73.40
2023-02-28T14:15:40.851Z,71.10
2023-02-28T14:18:27.039Z,71.90
2023-02-28T14:21:09.871Z,72.60
2023-02-28T14:23:37.477Z,71.50
2023-02-28T14:26:36.007Z,70.20
2023-02-28T14:29:26.444Z,69.80
2023-02-28T14:32:12.332Z,68.80
2023-02-28T14:35:11.436Z,71.40
2023-02-28T14:37:40.862Z,71.50
2023-02-28T14:40:39.261Z,70.60
2023-02-28T14:43:19.527Z,70.90
2023-02-28T14:45:58.250Z,70.70
2023-02-28T14:48:27.431Z,70.30
2023-02-28T14:51:00.166Z,71.20
2023-02-28T14:53:29.570Z,71.20
2023-02-28T14:55:57.472Z,71.20
2023-02-28T14:58:24.986Z,71.60
2023-02-28T15:00:55.826Z,71.20
2023-02-28T15:03:31.920Z,72.00
2023-02-28T15:06:03.485Z,73.10
2023-02-28T15:08:36.123Z,73.10
2023-02-28T15:11:08.903Z,73.70
2023-02-28T15:13:48.824Z,73.60
2023-02-28T15:16:39.787Z,72.80
2023-02-28T15:19:14.571Z,71.60
2023-02-28T15:21:47.162Z,72.70
2023-02-28T15:24:32.842Z,73.90
2023-02-28T15:27:08.639Z,74.90
2023-02-28T15:29:46.949Z,75.70
2023-02-28T15:32:40.779Z,76.00
2023-02-28T15:35:31.515Z,76.80
2023-02-28T15:38:04.111Z,78.00
2023-02-28T15:40:42.011Z,78.50
2023-02-28T15:43:25.750Z,79.30
2023-02-28T15:46:05.184Z,79.80
2023-02-28T15:48:36.982Z,80.30
2023-02-28T15:51:18.924Z,80.70
2023-02-28T15:53:52.164Z,81.50
2023-02-28T15:56:34.648Z,82.50
2023-02-28T15:59:06.408Z,83.60
2023-02-28T16:01:38.540Z,84.10
2023-02-28T16:04:18.122Z,84.50
2023-02-28T16:07:00.825Z,86.30
2023-02-28T16:09:32.580Z,88.00
2023-02-28T16:12:04.213Z,88.70
2023-02-28T16:14:32.545Z,89.80
2023-02-28T16:17:27.987Z,90.30
2023-02-28T16:19:56.496Z,90.80
2023-02-28T16:22:23.987Z,91.50
2023-02-28T16:24:52.359Z,92.00
2023-02-28T16:27:49.755Z,92.40
2023-02-28T16:30:29.200Z,93.00
2023-02-28T16:32:57.090Z,93.30
2023-02-28T16:35:25.122Z,93.70
2023-02-28T16:37:53.008Z,94.00
2023-02-28T16:40:26.504Z,94.40
2023-02-28T16:43:00.549Z,94.80
2023-02-28T16:45:30.216Z,95.20
2023-02-28T16:47:58.767Z,95.40
2023-02-28T16:50:30.309Z,95.80
2023-02-28T16:52:58.010Z,96.30
2023-02-28T16:55:27.143Z,96.60
2023-02-28T16:57:57.844Z,96.80
2023-02-28T17:00:26.258Z,97.30
2023-02-28T17:02:53.901Z,97.50
2023-02-28T17:05:22.101Z,97.70
2023-02-28T17:07:49.892Z,98.00
2023-02-28T17:10:21.218Z,98.50
2023-02-28T17:12:49.042Z,98.90
2023-02-28T17:15:18.702Z,99.20
2023-02-28T17:17:47.129Z,99.70
2023-02-28T17:20:17.499Z,99.80
2023-02-28T17:22:44.784Z,99.90
2023-02-28T17:25:12.610Z,99.90
2023-02-28T17:27:39.916Z,99.90
2023-02-28T17:30:25.428Z,99.90
2023-02-28T17:32:52.742Z,99.90
2023-02-28T17:35:20.627Z,99.90
2023-02-28T17:37:49.977Z,99.90
2023-02-28T17:40:21.689Z,99.90
2023-02-28T17:42:49.350Z,99.90
2023-02-28T17:45:17.327Z,99.90
2023-02-28T17:47:48.401Z,99.90
2023-02-28T17:50:18.954Z,99.90
2023-02-28T17:52:47.316Z,99.90
2023-02-28T17:55:15.417Z,99.90
2023-02-28T17:57:43.124Z,99.90
2023-02-28T18:00:14.625Z,99.90
2023-02-28T18:02:43.435Z,99.90
2023-02-28T18:05:12.369Z,99.90
2023-02-28T18:07:40.802Z,99.90
2023-02-28T18:10:28.413Z,99.90
2023-02-28T18:12:56.126Z,99.90
2023-02-28T18:15:23.883Z,99.90
2023-02-28T18:17:51.342Z,99.90
2023-02-28T18:20:19.785Z,99.90
2023-02-28T18:22:47.536Z,99.90
2023-02-28T18:25:17.049Z,99.90
2023-02-28T18:27:58.238Z,99.90
2023-02-28T18:30:32.536Z,99.90
2023-02-28T18:33:01.165Z,99.90
2023-02-28T18:35:35.410Z,99.90
2023-02-28T18:38:13.354Z,99.90
2023-02-28T18:40:42.423Z,99.90
2023-02-28T18:43:10.427Z,99.90
2023-02-28T18:45:39.447Z,99.90
2023-02-28T18:48:06.988Z,99.90
2023-02-28T18:50:37.005Z,99.90
2023-02-28T18:53:04.304Z,99.90
2023-02-28T18:55:32.670Z,99.90
2023-02-28T18:58:00.312Z,99.90
2023-02-28T19:00:28.234Z,99.90
2023-02-28T19:02:55.618Z,99.90
2023-02-28T19:05:23.945Z,99.90
2023-02-28T19:07:51.183Z,99.90
2023-02-28T19:10:19.266Z,99.90
2023-02-28T19:12:47.113Z,99.90
2023-02-28T19:15:15.031Z,99.90
2023-02-28T19:17:42.823Z,99.90
2023-02-28T19:20:11.072Z,99.90
2023-02-28T19:22:39.581Z,99.90
2023-02-28T19:25:08.217Z,99.90
2023-02-28T19:27:35.728Z,99.90
2023-02-28T19:30:04.778Z,99.90
2023-02-28T19:32:32.376Z,99.90
2023-02-28T19:34:59.949Z,99.90
2023-02-28T19:37:27.320Z,99.90
2023-02-28T19:39:57.050Z,99.90
2023-02-28T19:42:24.819Z,99.90
2023-02-28T19:44:52.525Z,99.90
2023-02-28T19:47:19.820Z,99.90
2023-02-28T19:49:47.529Z,99.90
2023-02-28T19:52:15.614Z,99.90
2023-02-28T19:54:43.905Z,99.90
2023-02-28T19:57:11.208Z,99.90
2023-02-28T19:59:40.239Z,99.90
2023-02-28T20:02:15.322Z,99.90
2023-02-28T20:04:43.544Z,99.90
2023-02-28T20:07:11.126Z,99.90
2023-02-28T20:09:38.569Z,99.90
2023-02-28T20:12:09.323Z,99.90
2023-02-28T20:14:42.649Z,99.90
2023-02-28T20:17:10.056Z,99.90
2023-02-28T20:19:38.247Z,99.90
2023-02-28T20:22:06.043Z,99.90
2023-02-28T20:24:34.227Z,99.90
2023-02-28T20:27:01.788Z,99.90
2023-02-28T20:29:30.044Z,99.90
2023-02-28T20:31:58.002Z,99.90
2023-02-28T20:34:25.545Z,99.90
2023-02-28T20:36:53.448Z,99.90
2023-02-28T20:39:21.521Z,99.90
2023-02-28T20:41:48.852Z,99.90
2023-02-28T20:44:16.410Z,99.90
2023-02-28T20:46:45.002Z,99.90
2023-02-28T20:49:13.134Z,99.90
2023-02-28T20:51:42.354Z,99.90
2023-02-28T20:54:11.832Z,99.90
2023-02-28T20:56:39.260Z,99.90
2023-02-28T20:59:06.873Z,99.90
2023-02-28T21:01:34.303Z,99.90
2023-02-28T21:04:06.047Z,99.90
2023-02-28T21:06:36.850Z,99.90
2023-02-28T21:09:07.345Z,99.90
2023-02-28T21:11:36.900Z,99.90
2023-02-28T21:14:11.311Z,99.90
2023-02-28T21:16:39.185Z,99.90
2023-02-28T21:19:07.145Z,99.90
2023-02-28T21:21:44.692Z,99.90
2023-02-28T21:24:14.353Z,99.90
2023-02-28T21:26:44.583Z,99.90
2023-02-28T21:29:13.435Z,99.90
2023-02-28T21:31:41.329Z,99.90
2023-02-28T21:34:11.059Z,99.90
2023-02-28T21:36:40.827Z,99.90
2023-02-28T21:39:14.393Z,99.90
2023-02-28T21:41:42.102Z,99.90
2023-02-28T21:44:18.471Z,99.90
2023-02-28T21:46:48.222Z,99.90
2023-02-28T21:49:16.360Z,99.90
2023-02-28T21:51:43.797Z,99.90
2023-02-28T21:54:11.871Z,99.90
2023-02-28T21:56:39.681Z,99.90
2023-02-28T21:59:09.840Z,99.90
2023-02-28T22:01:44.297Z,99.90
2023-02-28T22:04:24.144Z,99.90
2023-02-28T22:06:57.186Z,99.90
2023-02-28T22:09:25.821Z,99.90
2023-02-28T22:11:53.152Z,99.90
2023-02-28T22:14:21.055Z,99.90
2023-02-28T22:16:53.261Z,99.90
2023-02-28T22:19:22.709Z,99.90
2023-02-28T22:21:51.966Z,99.90
2023-02-28T22:24:21.990Z,99.90
2023-02-28T22:26:50.643Z,99.90
2023-02-28T22:29:19.337Z,99.90
2023-02-28T22:31:46.755Z,99.90
2023-02-28T22:34:14.460Z,99.90
2023-02-28T22:36:42.833Z,99.90
2023-02-28T22:39:11.490Z,99.90
2023-02-28T22:41:38.960Z,99.90
2023-02-28T22:44:07.911Z,99.90
2023-02-28T22:46:36.505Z,99.90
2023-02-28T22:49:05.569Z,99.90
2023-02-28T22:51:33.905Z,99.90
2023-02-28T22:54:02.051Z,99.90
2023-02-28T22:56:31.019Z,99.90
2023-02-28T22:59:00.361Z,99.90
2023-02-28T23:01:31.520Z,99.90
2023-02-28T23:04:00.016Z,99.90
2023-02-28T23:06:31.172Z,99.90
2023-02-28T23:09:01.495Z,99.90
2023-02-28T23:11:32.670Z,99.90
2023-02-28T23:14:00.845Z,99.90
2023-02-28T23:16:37.646Z,99.90
2023-02-28T23:19:14.433Z,99.90
2023-02-28T23:21:42.719Z,99.90
2023-02-28T23:24:11.837Z,99.90
2023-02-28T23:26:43.830Z,99.90
2023-02-28T23:29:13.018Z,99.90
2023-02-28T23:31:40.989Z,99.90
2023-02-28T23:34:09.567Z,99.90
2023-02-28T23:36:39.368Z,99.90
2023-02-28T23:39:06.576Z,99.90
2023-02-28T23:41:34.530Z,99.90
2023-02-28T23:44:01.832Z,99.90
2023-02-28T23:46:29.810Z,99.90
2023-02-28T23:48:59.114Z,99.90
2023-02-28T23:51:26.790Z,99.90
2023-02-28T23:53:54.213Z,99.90
2023-02-28T23:56:23.614Z,99.90
2023-02-28T23:58:51.421Z,99.90
